Time;durP1;ratioP1;P1;durP2;ratioP2;P2;SDS_P1;SDS_P2;PMS_P1;PMS_P2;Temp;Humidity;BMP_temperature;BMP_pressure;BME280_temperature;BME280_humidity;BME280_pressure;Samples;Min_cycle;Max_cycle;Signal;HPM_P1;HPM_P2
2021/11/28 00:01:52;;;;;;;28.57;20.47;;;5.60;99.90;;;;;;5072296;28;20199;-46
2021/11/28 00:04:18;;;;;;;29.30;19.90;;;5.60;99.90;;;;;;5071670;28;20503;-47
2021/11/28 00:06:54;;;;;;;28.03;20.70;;;5.50;99.90;;;;;;5071348;28;20599;-45
2021/11/28 00:09:37;;;;;;;29.02;20.88;;;5.30;99.90;;;;;;5070963;28;20442;-47
2021/11/28 00:12:13;;;;;;;25.93;18.47;;;5.50;99.90;;;;;;5071323;28;20202;-47
2021/11/28 00:14:42;;;;;;;27.57;19.47;;;5.70;99.90;;;;;;5071466;28;20412;-47
2021/11/28 00:17:12;;;;;;;29.23;19.00;;;5.50;99.90;;;;;;5070843;28;20428;-47
2021/11/28 00:19:39;;;;;;;26.45;20.25;;;5.20;99.90;;;;;;5072890;28;20215;-47
2021/11/28 00:22:06;;;;;;;35.28;19.13;;;5.70;99.90;;;;;;5075340;28;20191;-47
2021/11/28 00:24:33;;;;;;;26.75;19.45;;;5.30;99.90;;;;;;5075375;28;20196;-47
2021/11/28 00:27:00;;;;;;;27.77;20.50;;;5.50;99.90;;;;;;5093821;28;20223;-48
2021/11/28 00:29:28;;;;;;;29.25;20.02;;;5.70;99.90;;;;;;5095231;28;20195;-47
2021/11/28 00:31:56;;;;;;;26.05;19.10;;;5.50;99.90;;;;;;5077104;28;20282;-47
2021/11/28 00:34:24;;;;;;;29.42;18.77;;;5.50;99.90;;;;;;5077313;28;20248;-47
2021/11/28 00:36:50;;;;;;;23.07;17.83;;;5.10;99.90;;;;;;5077029;28;20222;-48
2021/11/28 00:39:18;;;;;;;27.02;19.60;;;4.80;99.90;;;;;;5095062;28;20433;-47
2021/11/28 00:41:44;;;;;;;25.40;19.50;;;5.50;99.90;;;;;;5095580;28;20198;-48
2021/11/28 00:44:12;;;;;;;31.13;20.00;;;5.80;99.90;;;;;;5077277;28;20195;-48
2021/11/28 00:46:38;;;;;;;29.13;19.77;;;5.30;99.90;;;;;;5094551;28;20650;-47
2021/11/28 00:49:12;;;;;;;23.93;19.23;;;5.20;99.90;;;;;;5056410;28;20449;-48
2021/11/28 00:51:49;;;;;;;27.73;19.73;;;5.20;99.90;;;;;;5057052;28;20417;-48
2021/11/28 00:54:16;;;;;;;22.33;17.13;;;5.30;99.90;;;;;;5056800;28;20291;-46
2021/11/28 00:56:43;;;;;;;25.48;16.77;;;5.30;99.90;;;;;;5056949;28;20547;-47
2021/11/28 00:59:11;;;;;;;22.90;17.77;;;4.70;99.90;;;;;;5056631;28;20192;-47
2021/11/28 01:01:37;;;;;;;20.92;16.35;;;5.30;99.90;;;;;;5056987;28;20555;-46
2021/11/28 01:04:05;;;;;;;22.40;16.67;;;5.00;99.90;;;;;;5076180;28;20552;-47
2021/11/28 01:06:31;;;;;;;24.90;17.38;;;5.10;99.90;;;;;;5060190;28;20576;-45
2021/11/28 01:09:00;;;;;;;22.30;17.35;;;5.20;99.90;;;;;;5058115;28;20199;-47
2021/11/28 01:11:27;;;;;;;21.27;16.08;;;5.10;99.90;;;;;;5059207;28;20200;-48
2021/11/28 01:13:54;;;;;;;21.45;16.20;;;5.10;99.90;;;;;;5058134;28;20208;-47
2021/11/28 01:16:22;;;;;;;21.17;15.93;;;5.70;99.90;;;;;;5075573;28;20222;-47
2021/11/28 01:18:49;;;;;;;19.65;14.48;;;5.40;99.90;;;;;;5075442;28;20195;-47
2021/11/28 01:21:16;;;;;;;26.08;16.27;;;5.30;99.90;;;;;;5077112;28;20296;-46
2021/11/28 01:23:43;;;;;;;20.02;14.85;;;5.30;99.90;;;;;;5076413;28;20202;-46
2021/11/28 01:26:14;;;;;;;19.70;14.80;;;4.80;99.90;;;;;;5068369;28;20388;-47
2021/11/28 01:28:41;;;;;;;19.85;14.73;;;5.30;99.90;;;;;;5075772;28;20195;-49
2021/11/28 01:31:09;;;;;;;18.63;14.30;;;5.40;99.90;;;;;;5074987;28;20196;-47
2021/11/28 01:33:35;;;;;;;24.20;16.00;;;5.20;99.90;;;;;;5075956;28;20518;-48
2021/11/28 01:36:02;;;;;;;18.13;13.70;;;5.30;99.90;;;;;;5075880;28;20218;-47
2021/11/28 01:38:29;;;;;;;16.90;12.70;;;5.30;99.90;;;;;;5093641;28;20195;-48
2021/11/28 01:40:56;;;;;;;20.23;12.80;;;5.10;99.90;;;;;;5075941;28;20233;-48
2021/11/28 01:43:25;;;;;;;26.23;14.53;;;5.30;99.90;;;;;;5075855;28;20207;-48
2021/11/28 01:45:53;;;;;;;19.65;15.32;;;5.20;99.90;;;;;;5075764;28;20465;-47
2021/11/28 01:48:21;;;;;;;22.15;15.43;;;5.20;99.90;;;;;;5056843;28;20295;-47
2021/11/28 01:50:51;;;;;;;20.92;16.33;;;5.20;99.90;;;;;;5035658;28;20196;-48
2021/11/28 01:53:20;;;;;;;19.52;15.00;;;4.80;99.90;;;;;;5035731;28;20211;-48
2021/11/28 01:55:48;;;;;;;18.90;14.05;;;5.10;99.90;;;;;;5035580;28;20246;-48
2021/11/28 01:58:24;;;;;;;22.08;15.07;;;5.00;99.90;;;;;;5035327;28;20289;-48
2021/11/28 02:00:53;;;;;;;22.93;15.50;;;5.90;99.90;;;;;;5035524;28;20244;-46
2021/11/28 02:03:20;;;;;;;22.38;15.82;;;5.40;99.90;;;;;;5068308;28;20441;-48
2021/11/28 02:05:51;;;;;;;19.70;15.37;;;5.40;99.90;;;;;;5055303;28;20243;-46
2021/11/28 02:08:18;;;;;;;19.40;15.18;;;5.50;99.90;;;;;;5055174;28;20713;-47
2021/11/28 02:10:46;;;;;;;18.95;13.98;;;5.40;99.90;;;;;;5073384;28;20194;-48
2021/11/28 02:13:14;;;;;;;17.83;14.30;;;5.40;99.90;;;;;;5055127;28;20283;-47
2021/11/28 02:15:42;;;;;;;20.30;15.40;;;5.30;99.90;;;;;;5054912;28;20427;-47
2021/11/28 02:18:11;;;;;;;20.92;15.38;;;5.60;99.90;;;;;;5054926;28;20206;-46
2021/11/28 02:20:43;;;;;;;19.95;13.40;;;5.70;99.90;;;;;;5055304;28;20250;-47
2021/11/28 02:23:10;;;;;;;20.70;13.57;;;5.60;99.90;;;;;;5055405;28;20210;-46
2021/11/28 02:25:37;;;;;;;24.85;16.10;;;5.40;99.90;;;;;;5062439;28;20251;-47
2021/11/28 02:28:04;;;;;;;27.73;16.27;;;5.50;99.90;;;;;;5074603;28;20203;-47
2021/11/28 02:30:33;;;;;;;29.33;16.33;;;5.40;99.90;;;;;;5075027;28;20738;-46
2021/11/28 02:33:00;;;;;;;21.65;14.32;;;5.70;99.90;;;;;;5092712;28;20606;-48
2021/11/28 02:35:30;;;;;;;21.27;14.10;;;5.60;99.90;;;;;;5074537;28;20207;-47
2021/11/28 02:37:59;;;;;;;22.33;14.27;;;5.60;99.90;;;;;;5074654;28;20463;-47
2021/11/28 02:40:27;;;;;;;23.38;15.55;;;5.60;99.90;;;;;;5075057;28;20218;-47
2021/11/28 02:42:55;;;;;;;18.33;13.77;;;5.60;99.90;;;;;;5076001;28;20226;-46
2021/11/28 02:45:25;;;;;;;16.75;13.13;;;5.90;99.90;;;;;;5094176;28;20218;-46
2021/11/28 02:47:53;;;;;;;17.27;14.30;;;5.50;99.90;;;;;;5060146;28;20645;-47
2021/11/28 02:50:22;;;;;;;15.60;13.10;;;5.60;99.90;;;;;;5052460;28;20774;-47
2021/11/28 02:52:53;;;;;;;17.50;14.10;;;5.50;99.90;;;;;;5052533;28;20196;-46
2021/11/28 02:55:23;;;;;;;13.27;11.20;;;5.70;99.90;;;;;;5034591;28;20469;-47
2021/11/28 02:57:49;;;;;;;15.40;11.90;;;5.80;99.90;;;;;;5033999;28;20481;-49
2021/11/28 03:00:18;;;;;;;16.70;13.88;;;5.70;99.90;;;;;;5052202;28;20436;-46
2021/11/28 03:02:46;;;;;;;17.65;12.10;;;5.70;99.90;;;;;;5061038;28;20690;-49
2021/11/28 03:05:20;;;;;;;16.40;12.47;;;5.80;99.90;;;;;;5054032;28;20639;-47
2021/11/28 03:07:48;;;;;;;15.23;12.03;;;5.00;99.90;;;;;;5053730;28;20856;-47
2021/11/28 03:10:36;;;;;;;15.50;12.03;;;5.80;99.90;;;;;;5072258;28;20433;-47
2021/11/28 03:13:03;;;;;;;16.30;13.20;;;5.50;99.90;;;;;;5054283;28;20537;-45
2021/11/28 03:15:30;;;;;;;13.90;11.83;;;5.30;99.90;;;;;;5053753;28;20551;-48
2021/11/28 03:17:59;;;;;;;15.47;12.80;;;5.60;99.90;;;;;;5071668;28;20780;-48
2021/11/28 03:20:26;;;;;;;14.00;11.32;;;6.20;99.90;;;;;;5053697;28;20454;-49
2021/11/28 03:22:53;;;;;;;14.67;12.03;;;5.20;99.90;;;;;;5054042;28;20196;-48
2021/11/28 03:25:22;;;;;;;14.98;11.52;;;5.80;99.90;;;;;;5076658;28;20438;-47
2021/11/28 03:27:51;;;;;;;17.00;13.25;;;6.10;99.90;;;;;;5073695;28;20326;-46
2021/11/28 03:30:18;;;;;;;13.15;10.63;;;5.60;99.90;;;;;;5091759;28;20191;-47
2021/11/28 03:33:15;;;;;;;17.92;12.30;;;5.20;99.90;;;;;;5036789;28;20562;-47
2021/11/28 03:36:05;;;;;;;14.30;10.68;;;6.00;99.90;;;;;;5080998;28;20227;-47
2021/11/28 03:38:33;;;;;;;13.57;11.20;;;5.30;99.90;;;;;;5073605;28;20255;-48
2021/11/28 03:40:59;;;;;;;13.82;11.27;;;5.40;99.90;;;;;;5092013;28;20236;-47
2021/11/28 03:43:31;;;;;;;14.40;11.27;;;5.30;99.90;;;;;;5073822;28;20294;-47
2021/11/28 03:45:58;;;;;;;14.85;12.27;;;5.50;99.90;;;;;;5073499;28;20734;-46
2021/11/28 03:48:25;;;;;;;15.30;11.23;;;5.60;99.90;;;;;;5054608;28;20568;-46
2021/11/28 03:50:52;;;;;;;15.50;11.23;;;5.40;99.90;;;;;;5033742;28;20197;-47
2021/11/28 03:53:20;;;;;;;14.52;11.88;;;5.60;99.90;;;;;;5033882;28;20865;-47
2021/11/28 03:55:48;;;;;;;14.57;11.30;;;5.60;99.90;;;;;;5033690;28;20251;-47
2021/11/28 03:58:15;;;;;;;16.58;11.85;;;5.70;99.90;;;;;;5033322;28;20231;-47
2021/11/28 04:00:44;;;;;;;13.60;10.87;;;5.80;99.90;;;;;;5051422;28;20216;-46
2021/11/28 04:03:13;;;;;;;12.97;9.97;;;5.40;99.90;;;;;;5048252;28;20968;-47
2021/11/28 04:05:41;;;;;;;12.25;9.25;;;5.00;99.90;;;;;;5056203;28;20453;-49
2021/11/28 04:08:08;;;;;;;14.87;11.97;;;5.60;99.90;;;;;;5053319;28;20199;-46
2021/11/28 04:10:35;;;;;;;12.00;10.48;;;5.10;99.90;;;;;;5053381;28;20853;-49
2021/11/28 04:13:04;;;;;;;15.80;12.50;;;5.60;99.90;;;;;;5053688;28;20569;-47
2021/11/28 04:15:31;;;;;;;14.10;10.90;;;5.50;99.90;;;;;;5071009;28;20445;-47
2021/11/28 04:18:13;;;;;;;13.43;11.80;;;5.60;99.90;;;;;;5053332;28;20453;-47
2021/11/28 04:20:41;;;;;;;17.10;11.97;;;5.50;99.90;;;;;;5053182;28;20452;-48
2021/11/28 04:23:08;;;;;;;14.60;11.63;;;5.00;99.90;;;;;;5071466;28;20521;-47
2021/11/28 04:25:35;;;;;;;15.63;11.93;;;5.50;99.90;;;;;;5060102;28;20957;-47
2021/11/28 04:28:03;;;;;;;13.45;11.73;;;5.30;99.90;;;;;;5073263;28;20515;-47
2021/11/28 04:30:30;;;;;;;12.53;10.77;;;5.50;99.90;;;;;;5073289;28;20199;-48
2021/11/28 04:32:59;;;;;;;19.87;11.27;;;5.10;99.90;;;;;;5073639;28;20449;-48
2021/11/28 04:35:27;;;;;;;16.65;12.52;;;5.20;99.90;;;;;;5073428;28;21057;-48
2021/11/28 04:37:53;;;;;;;16.02;11.30;;;5.10;99.90;;;;;;5073114;28;20199;-49
2021/11/28 04:40:21;;;;;;;15.13;12.93;;;5.00;99.90;;;;;;5073291;28;20667;-47
2021/11/28 04:42:48;;;;;;;13.95;11.75;;;5.10;99.90;;;;;;5073260;28;21000;-48
2021/11/28 04:45:16;;;;;;;15.40;11.98;;;5.00;99.90;;;;;;5073146;28;20208;-49
2021/11/28 04:47:42;;;;;;;14.85;12.02;;;4.70;99.90;;;;;;5059764;28;20251;-47
2021/11/28 04:50:13;;;;;;;12.55;10.75;;;4.30;99.90;;;;;;5033153;28;20207;-47
2021/11/28 04:52:41;;;;;;;17.27;12.13;;;4.70;99.90;;;;;;5050018;28;20618;-46
2021/11/28 04:55:11;;;;;;;15.70;12.20;;;4.80;99.90;;;;;;5049758;28;20204;-47
2021/11/28 04:57:38;;;;;;;13.85;11.23;;;4.60;99.90;;;;;;5033423;28;20228;-47
2021/11/28 05:00:08;;;;;;;16.30;12.55;;;4.60;99.90;;;;;;5051129;28;20279;-47
2021/11/28 05:02:42;;;;;;;15.45;11.95;;;4.50;99.90;;;;;;5059845;28;20669;-48
2021/11/28 05:05:09;;;;;;;14.68;12.13;;;4.50;99.90;;;;;;5053233;28;20206;-49
2021/11/28 05:07:56;;;;;;;14.98;12.00;;;4.50;99.90;;;;;;5074619;28;20207;-50
2021/11/28 05:10:24;;;;;;;18.55;12.40;;;4.40;99.90;;;;;;5056777;28;20195;-47
2021/11/28 05:12:54;;;;;;;16.55;12.68;;;4.20;99.90;;;;;;5056695;28;20195;-49
2021/11/28 05:15:21;;;;;;;16.35;12.15;;;4.50;99.90;;;;;;5074461;28;20199;-48
2021/11/28 05:18:23;;;;;;;18.05;11.88;;;4.00;99.90;;;;;;5074050;28;20198;-48
2021/11/28 05:20:57;;;;;;;15.02;12.40;;;4.20;99.90;;;;;;5056403;28;20205;-49
2021/11/28 05:23:25;;;;;;;14.20;11.70;;;4.30;99.90;;;;;;5056986;28;20199;-47
2021/11/28 05:25:51;;;;;;;16.70;12.73;;;4.30;99.90;;;;;;5067031;28;20241;-48
2021/11/28 05:28:18;;;;;;;15.13;12.93;;;4.40;99.90;;;;;;5077641;28;20238;-48
2021/11/28 05:30:45;;;;;;;14.48;11.50;;;4.20;99.90;;;;;;5076685;28;20286;-49
2021/11/28 05:33:32;;;;;;;18.58;13.68;;;4.20;99.90;;;;;;5094395;28;20738;-46
2021/11/28 05:36:19;;;;;;;20.00;14.07;;;4.50;99.90;;;;;;5094532;28;20230;-46
2021/11/28 05:38:53;;;;;;;18.38;13.40;;;3.80;99.90;;;;;;5076136;28;20198;-48
2021/11/28 05:41:20;;;;;;;15.23;11.82;;;4.30;99.90;;;;;;5076569;28;20226;-46
2021/11/28 05:43:48;;;;;;;16.42;12.20;;;3.90;99.90;;;;;;5076195;28;20206;-47
2021/11/28 05:46:17;;;;;;;15.70;12.65;;;3.70;99.90;;;;;;5076027;28;20283;-47
2021/11/28 05:49:03;;;;;;;16.58;13.40;;;4.10;99.90;;;;;;5053624;28;20227;-48
2021/11/28 05:51:59;;;;;;;17.98;12.23;;;4.00;99.90;;;;;;5053917;28;20200;-47
2021/11/28 05:54:28;;;;;;;20.23;13.93;;;3.90;99.90;;;;;;5035961;28;20685;-48
2021/11/28 05:56:56;;;;;;;16.02;12.45;;;4.00;99.90;;;;;;5035672;28;20704;-47
2021/11/28 05:59:22;;;;;;;15.73;12.10;;;4.00;99.90;;;;;;5035655;28;20200;-47
2021/11/28 06:01:50;;;;;;;17.27;12.65;;;3.70;99.90;;;;;;5038902;28;20306;-47
2021/11/28 06:04:17;;;;;;;17.50;12.88;;;4.10;99.90;;;;;;5056107;28;20211;-48
2021/11/28 06:07:18;;;;;;;16.05;12.40;;;3.50;99.90;;;;;;5073744;28;20305;-48
2021/11/28 06:09:47;;;;;;;16.33;13.57;;;3.40;99.90;;;;;;5055553;28;20203;-48
2021/11/28 06:12:19;;;;;;;19.58;13.48;;;3.90;99.90;;;;;;5056083;28;20199;-46
2021/11/28 06:14:45;;;;;;;16.75;13.57;;;4.00;99.90;;;;;;5055624;28;20195;-46
2021/11/28 06:17:22;;;;;;;19.02;13.55;;;3.70;99.90;;;;;;5055027;28;20223;-47
2021/11/28 06:20:17;;;;;;;17.85;13.57;;;3.80;99.90;;;;;;5018717;28;20214;-46
2021/11/28 06:22:58;;;;;;;17.92;12.93;;;3.80;99.90;;;;;;5055745;28;20243;-48
2021/11/28 06:25:28;;;;;;;20.95;14.95;;;3.60;99.90;;;;;;5060525;28;20580;-49
2021/11/28 06:27:55;;;;;;;17.17;12.98;;;3.30;99.90;;;;;;5074841;28;20203;-47
2021/11/28 06:30:22;;;;;;;19.00;13.63;;;3.60;99.90;;;;;;5074924;28;20194;-47
2021/11/28 06:33:09;;;;;;;20.23;14.00;;;3.70;99.90;;;;;;5093039;28;20205;-48
2021/11/28 06:35:54;;;;;;;17.00;13.68;;;3.80;99.90;;;;;;5093334;28;20232;-47
2021/11/28 06:38:31;;;;;;;16.70;13.50;;;3.60;99.90;;;;;;5074654;28;20229;-46
2021/11/28 06:41:18;;;;;;;16.88;14.45;;;3.40;99.90;;;;;;5092961;28;20282;-48
2021/11/28 06:43:44;;;;;;;20.70;14.68;;;3.70;99.90;;;;;;5074777;28;20203;-49
2021/11/28 06:46:11;;;;;;;17.60;13.80;;;3.70;99.90;;;;;;5074520;28;20255;-48
2021/11/28 06:48:38;;;;;;;19.05;13.40;;;3.60;99.90;;;;;;5056295;28;20204;-47
2021/11/28 06:51:25;;;;;;;15.88;13.25;;;3.30;99.90;;;;;;5011532;28;20215;-48
2021/11/28 06:53:51;;;;;;;15.98;13.48;;;3.40;99.90;;;;;;5034813;28;20535;-48
2021/11/28 06:56:38;;;;;;;16.23;12.70;;;3.30;99.90;;;;;;5052696;28;20293;-49
2021/11/28 06:59:06;;;;;;;16.00;12.25;;;3.50;99.90;;;;;;5034429;28;20620;-48
2021/11/28 07:01:35;;;;;;;17.70;12.95;;;3.40;99.90;;;;;;5034972;28;20665;-48
2021/11/28 07:04:22;;;;;;;21.58;13.95;;;3.50;99.90;;;;;;5072496;28;20253;-47
2021/11/28 07:07:09;;;;;;;16.55;13.30;;;3.50;99.90;;;;;;5072327;28;20231;-46
2021/11/28 07:09:38;;;;;;;16.52;14.00;;;3.50;99.90;;;;;;5053846;28;20297;-47
2021/11/28 07:12:07;;;;;;;18.92;13.15;;;3.60;99.90;;;;;;5054153;28;20187;-47
2021/11/28 07:14:35;;;;;;;21.10;13.68;;;3.50;99.90;;;;;;5054817;28;20646;-46
2021/11/28 07:17:02;;;;;;;19.90;14.77;;;3.30;99.90;;;;;;5054141;28;20218;-48
2021/11/28 07:19:31;;;;;;;19.52;14.10;;;3.30;99.90;;;;;;5053811;28;20296;-47
2021/11/28 07:22:16;;;;;;;22.05;13.77;;;3.30;99.90;;;;;;5071992;28;20376;-47
2021/11/28 07:24:44;;;;;;;18.92;13.40;;;2.80;99.90;;;;;;5054470;28;20217;-47
2021/11/28 07:27:12;;;;;;;18.67;14.35;;;3.50;99.90;;;;;;5050765;28;20224;-47
2021/11/28 07:29:39;;;;;;;19.40;14.77;;;3.60;99.90;;;;;;5049884;28;20227;-47
2021/11/28 07:32:06;;;;;;;19.70;14.35;;;3.40;99.90;;;;;;5051889;28;20286;-47
2021/11/28 07:34:52;;;;;;;15.40;13.38;;;3.40;99.90;;;;;;5051870;28;20207;-48
2021/11/28 07:37:44;;;;;;;19.88;13.25;;;3.40;99.90;;;;;;5049992;28;20762;-47
2021/11/28 07:40:12;;;;;;;21.85;14.50;;;3.50;99.90;;;;;;5050472;28;20688;-47
2021/11/28 07:42:47;;;;;;;20.55;13.18;;;3.60;99.90;;;;;;5050433;28;20219;-47
2021/11/28 07:45:36;;;;;;;15.07;12.38;;;3.30;99.90;;;;;;5051598;28;20208;-48
2021/11/28 07:48:23;;;;;;;19.73;15.13;;;3.40;99.90;;;;;;5066308;28;20218;-47
2021/11/28 07:51:12;;;;;;;18.92;14.60;;;3.40;99.90;;;;;;5053659;28;20205;-47
2021/11/28 07:53:39;;;;;;;18.52;14.32;;;3.40;99.90;;;;;;5054118;28;20222;-47
2021/11/28 07:56:06;;;;;;;20.13;13.45;;;3.00;99.90;;;;;;5053727;28;20250;-49
2021/11/28 07:59:03;;;;;;;19.05;14.13;;;3.70;99.90;;;;;;5071368;28;20203;-46
2021/11/28 08:01:30;;;;;;;20.50;14.20;;;3.50;99.90;;;;;;5053412;28;20206;-47
2021/11/28 08:04:26;;;;;;;19.00;14.65;;;3.50;99.90;;;;;;5058126;28;20257;-47
2021/11/28 08:07:11;;;;;;;23.83;14.77;;;3.50;99.90;;;;;;5071481;28;20311;-46
2021/11/28 08:09:50;;;;;;;21.20;15.45;;;3.50;99.90;;;;;;5054695;28;20347;-46
2021/11/28 08:12:17;;;;;;;21.20;16.15;;;3.50;99.90;;;;;;5071633;28;20191;-49
2021/11/28 08:14:45;;;;;;;16.02;12.90;;;3.70;99.90;;;;;;5071316;28;20199;-46
2021/11/28 08:17:12;;;;;;;22.38;14.80;;;3.50;99.90;;;;;;5053245;28;20227;-47
2021/11/28 08:19:40;;;;;;;17.27;13.07;;;3.50;99.90;;;;;;5071188;28;20198;-47
2021/11/28 08:22:07;;;;;;;20.38;14.27;;;3.40;99.90;;;;;;5071202;28;20216;-47
2021/11/28 08:24:34;;;;;;;17.75;12.90;;;3.60;99.90;;;;;;5071171;28;20206;-47
2021/11/28 08:27:01;;;;;;;18.35;12.32;;;3.70;99.90;;;;;;5089789;28;20221;-47
2021/11/28 08:29:28;;;;;;;17.42;12.25;;;4.10;99.90;;;;;;5091006;28;20190;-47
2021/11/28 08:31:56;;;;;;;16.05;12.63;;;3.50;99.90;;;;;;5073198;28;20199;-47
2021/11/28 08:34:43;;;;;;;16.02;13.13;;;3.70;99.90;;;;;;5091582;28;20251;-47
2021/11/28 08:37:14;;;;;;;23.40;16.45;;;3.60;99.90;;;;;;5073202;28;20245;-48
2021/11/28 08:39:40;;;;;;;18.17;13.98;;;3.50;99.90;;;;;;5091254;28;20198;-48
2021/11/28 08:42:08;;;;;;;16.42;13.43;;;3.60;99.90;;;;;;5094159;28;20214;-47
2021/11/28 08:44:36;;;;;;;15.52;12.45;;;3.60;99.90;;;;;;5095671;28;20267;-47
2021/11/28 08:47:04;;;;;;;17.23;12.75;;;3.70;99.90;;;;;;5090693;28;20219;-48
2021/11/28 08:49:34;;;;;;;19.48;13.80;;;3.60;99.90;;;;;;5056395;28;20199;-47
2021/11/28 08:52:02;;;;;;;18.65;12.35;;;3.20;99.90;;;;;;5074986;28;20560;-48
2021/11/28 08:54:30;;;;;;;17.52;11.85;;;3.70;99.90;;;;;;5074919;28;20195;-47
2021/11/28 08:56:57;;;;;;;17.05;12.95;;;3.60;99.90;;;;;;5074528;28;20306;-49
2021/11/28 08:59:25;;;;;;;17.88;13.38;;;3.90;99.90;;;;;;5074484;28;20663;-47
2021/11/28 09:01:52;;;;;;;15.40;13.10;;;3.50;99.90;;;;;;5074801;28;20281;-49
2021/11/28 09:04:20;;;;;;;19.42;13.85;;;4.20;99.90;;;;;;5074171;28;20230;-48
2021/11/28 09:06:47;;;;;;;16.77;11.93;;;4.30;99.90;;;;;;5074638;28;20219;-48
2021/11/28 09:09:13;;;;;;;17.42;12.68;;;3.70;99.90;;;;;;5074031;28;20199;-48
2021/11/28 09:11:40;;;;;;;15.30;12.38;;;3.90;99.90;;;;;;5074300;28;20570;-47
2021/11/28 09:14:06;;;;;;;15.50;11.80;;;3.80;99.90;;;;;;5074577;28;20560;-48
2021/11/28 09:16:33;;;;;;;16.88;12.32;;;3.90;99.90;;;;;;5074236;28;20289;-47
2021/11/28 09:19:03;;;;;;;20.15;12.45;;;4.10;99.90;;;;;;5073908;28;20195;-47
2021/11/28 09:21:31;;;;;;;16.15;11.80;;;4.20;99.90;;;;;;5074414;28;20210;-48
2021/11/28 09:26:43;;;;;;;13.02;10.43;;;4.10;99.90;;;;;;5089885;28;20233;-48
2021/11/28 09:29:09;;;;;;;13.27;10.90;;;4.10;99.90;;;;;;5093984;28;20206;-46
2021/11/28 09:31:36;;;;;;;20.23;12.40;;;3.90;99.90;;;;;;5096404;28;20568;-46
2021/11/28 09:34:03;;;;;;;17.55;12.80;;;4.20;99.90;;;;;;5095311;28;20195;-48
2021/11/28 09:36:32;;;;;;;15.05;11.90;;;4.00;99.90;;;;;;5093909;28;20237;-48
2021/11/28 09:39:00;;;;;;;16.90;10.65;;;3.60;99.90;;;;;;5093519;28;20225;-49
2021/11/28 09:41:33;;;;;;;17.27;10.70;;;4.20;99.90;;;;;;5094159;28;20555;-49
2021/11/28 09:44:05;;;;;;;15.38;11.48;;;4.10;99.90;;;;;;5093961;28;20225;-48
2021/11/28 09:46:33;;;;;;;16.27;11.93;;;4.20;99.90;;;;;;5093297;28;20225;-48
2021/11/28 09:49:04;;;;;;;16.27;12.85;;;4.00;99.90;;;;;;5053100;28;20215;-47
2021/11/28 09:51:33;;;;;;;17.27;12.10;;;4.30;99.90;;;;;;5061483;28;20202;-48
2021/11/28 09:54:03;;;;;;;13.10;9.55;;;3.70;99.90;;;;;;5055034;28;20199;-47
2021/11/28 09:56:34;;;;;;;15.75;11.40;;;4.40;99.90;;;;;;5073510;28;20315;-46
2021/11/28 09:59:03;;;;;;;18.77;12.38;;;3.90;99.90;;;;;;5073217;28;20698;-47
2021/11/28 10:01:31;;;;;;;13.95;10.88;;;4.60;99.90;;;;;;5073368;28;20638;-47
2021/11/28 10:03:57;;;;;;;14.75;10.80;;;4.90;99.90;;;;;;5053271;28;20226;-47
2021/11/28 10:06:24;;;;;;;16.35;11.85;;;4.40;99.90;;;;;;5053035;28;20685;-47
2021/11/28 10:08:52;;;;;;;13.50;10.95;;;4.20;99.90;;;;;;5052814;28;20196;-47
2021/11/28 10:11:55;;;;;;;17.55;11.60;;;4.40;99.90;;;;;;5053286;28;20572;-46
2021/11/28 10:14:22;;;;;;;14.00;11.25;;;4.70;99.90;;;;;;5052840;28;20199;-48
2021/11/28 10:16:50;;;;;;;17.42;11.63;;;4.70;99.90;;;;;;5052478;28;20251;-48
2021/11/28 10:19:17;;;;;;;16.20;11.15;;;4.60;99.90;;;;;;5052430;28;20559;-48
2021/11/28 10:21:43;;;;;;;12.77;10.18;;;4.40;99.90;;;;;;5052554;28;20249;-48
2021/11/28 10:24:13;;;;;;;15.73;11.38;;;4.10;99.90;;;;;;5052358;28;20334;-47
2021/11/28 10:26:53;;;;;;;18.50;10.82;;;4.60;99.90;;;;;;5083855;28;20226;-49
2021/11/28 10:29:21;;;;;;;13.55;10.73;;;4.80;99.90;;;;;;5092629;28;20221;-48
2021/11/28 10:31:50;;;;;;;18.08;12.23;;;4.80;99.90;;;;;;5092263;28;20205;-47
2021/11/28 10:34:19;;;;;;;21.05;13.27;;;4.60;99.90;;;;;;5092558;28;20198;-47
2021/11/28 10:36:45;;;;;;;14.70;11.70;;;4.30;99.90;;;;;;5092763;28;20556;-47
2021/11/28 10:39:16;;;;;;;16.55;10.65;;;4.70;99.90;;;;;;5092144;28;20202;-48
2021/11/28 10:41:49;;;;;;;14.15;11.45;;;5.00;99.90;;;;;;5092684;28;20203;-46
2021/11/28 10:44:18;;;;;;;18.00;12.13;;;4.90;99.90;;;;;;5092411;28;20207;-46
2021/11/28 10:46:46;;;;;;;16.48;11.25;;;5.00;99.90;;;;;;5090917;28;20226;-48
2021/11/28 10:49:14;;;;;;;17.98;11.95;;;4.80;99.90;;;;;;5072074;28;20616;-47
2021/11/28 10:51:42;;;;;;;17.35;12.35;;;4.90;99.90;;;;;;5072437;28;20511;-48
2021/11/28 10:54:28;;;;;;;17.92;11.57;;;4.80;99.90;;;;;;5074151;28;20271;-47
2021/11/28 10:57:14;;;;;;;15.50;11.60;;;5.10;99.90;;;;;;5095710;22;20235;-52
2021/11/28 10:59:43;;;;;;;15.70;11.05;;;4.40;99.90;;;;;;5071518;28;20230;-52
2021/11/28 11:02:20;;;;;;;19.63;11.15;;;4.80;99.90;;;;;;5072201;28;20210;-50
2021/11/28 11:04:47;;;;;;;15.43;11.00;;;4.80;99.90;;;;;;5070793;28;20241;-50
2021/11/28 11:07:14;;;;;;;15.70;11.27;;;5.40;99.90;;;;;;5071424;28;20718;-50
2021/11/28 11:09:44;;;;;;;15.00;11.30;;;5.00;99.90;;;;;;5070969;28;20203;-51
2021/11/28 11:12:22;;;;;;;18.73;12.35;;;4.80;99.90;;;;;;5071877;28;20202;-51
2021/11/28 11:14:49;;;;;;;16.35;10.40;;;4.80;99.90;;;;;;5071302;28;20682;-51
2021/11/28 11:17:16;;;;;;;14.75;9.95;;;5.20;99.90;;;;;;5071798;28;20237;-51
2021/11/28 11:19:46;;;;;;;13.90;11.00;;;4.60;99.90;;;;;;5071261;28;20203;-51
2021/11/28 11:22:18;;;;;;;14.35;11.75;;;5.30;99.90;;;;;;5071569;28;20191;-51
2021/11/28 11:24:52;;;;;;;17.33;12.52;;;5.50;99.90;;;;;;5071374;28;20218;-51
2021/11/28 11:27:21;;;;;;;22.20;11.93;;;5.20;99.90;;;;;;5051362;28;20219;-51
2021/11/28 11:29:51;;;;;;;14.65;11.02;;;5.00;99.90;;;;;;5051292;28;20848;-51
2021/11/28 11:32:20;;;;;;;15.38;11.90;;;4.70;99.90;;;;;;5051521;28;20199;-51
2021/11/28 11:34:55;;;;;;;17.15;11.43;;;5.10;99.90;;;;;;5050892;28;20220;-51
2021/11/28 11:37:24;;;;;;;17.30;11.98;;;5.10;99.90;;;;;;5050966;28;20311;-51
2021/11/28 11:39:54;;;;;;;16.02;10.48;;;4.90;99.90;;;;;;5051087;28;20635;-50
2021/11/28 11:42:23;;;;;;;16.58;11.40;;;5.30;99.90;;;;;;5051074;28;20199;-51
2021/11/28 11:44:50;;;;;;;18.20;11.85;;;5.20;99.90;;;;;;5050976;28;20247;-51
2021/11/28 11:47:18;;;;;;;21.13;11.43;;;5.20;99.90;;;;;;5056857;28;20226;-51
2021/11/28 11:49:45;;;;;;;15.80;12.30;;;5.30;99.90;;;;;;5071197;28;20597;-51
2021/11/28 11:52:13;;;;;;;17.65;10.43;;;5.40;99.90;;;;;;5070966;28;20438;-51
2021/11/28 11:54:43;;;;;;;21.23;10.65;;;5.30;99.90;;;;;;5070928;28;20282;-51
2021/11/28 11:57:14;;;;;;;13.43;9.80;;;5.30;99.90;;;;;;5070278;28;20707;-51
2021/11/28 11:59:54;;;;;;;15.02;11.30;;;5.90;99.90;;;;;;5052306;28;20196;-50
2021/11/28 12:02:31;;;;;;;17.63;11.73;;;5.20;99.90;;;;;;5070683;28;20227;-51
2021/11/28 12:04:58;;;;;;;17.83;13.27;;;5.90;99.90;;;;;;5070630;28;20242;-50
2021/11/28 12:07:50;;;;;;;19.27;13.60;;;5.40;99.90;;;;;;5070311;28;20695;-51
2021/11/28 12:10:28;;;;;;;22.13;12.50;;;5.30;99.90;;;;;;5070930;28;20302;-51
2021/11/28 12:12:57;;;;;;;18.08;12.40;;;5.70;99.90;;;;;;5070825;28;20643;-49
2021/11/28 12:15:25;;;;;;;14.90;11.37;;;5.50;99.90;;;;;;5072437;28;20277;-50
2021/11/28 12:17:54;;;;;;;14.10;11.13;;;5.40;99.90;;;;;;5074544;28;20457;-51
2021/11/28 12:20:56;;;;;;;18.23;10.47;;;5.50;99.90;;;;;;5075231;28;20576;-51
2021/11/28 12:23:52;;;;;;;15.10;10.83;;;5.40;99.90;;;;;;5074698;28;20567;-51
2021/11/28 12:26:53;;;;;;;13.23;9.90;;;5.40;99.90;;;;;;5068965;28;20469;-51
2021/11/28 12:29:35;;;;;;;18.65;10.07;;;5.40;99.90;;;;;;5094548;28;20893;-51
2021/11/28 12:32:28;;;;;;;17.00;9.80;;;5.20;99.90;;;;;;5094845;28;20216;-51
2021/11/28 12:35:00;;;;;;;15.10;9.82;;;5.50;99.90;;;;;;5095057;28;20872;-50
2021/11/28 12:37:31;;;;;;;14.40;10.50;;;5.30;99.90;;;;;;5094817;28;20580;-50
2021/11/28 12:40:18;;;;;;;20.90;10.70;;;5.20;99.90;;;;;;5094022;28;20464;-51
2021/11/28 12:42:46;;;;;;;20.67;12.48;;;5.30;99.90;;;;;;5094796;28;20202;-51
2021/11/28 12:45:26;;;;;;;18.87;10.47;;;4.90;99.90;;;;;;5094363;28;20226;-50
2021/11/28 12:48:08;;;;;;;15.18;9.45;;;5.00;99.90;;;;;;5082917;28;20439;-50
2021/11/28 12:51:02;;;;;;;18.42;10.30;;;5.20;99.90;;;;;;5074346;28;20271;-51
2021/11/28 12:53:36;;;;;;;15.45;9.75;;;5.30;99.90;;;;;;5073921;28;20203;-51
2021/11/28 12:56:18;;;;;;;14.50;9.83;;;5.30;99.90;;;;;;5056089;28;20235;-51
2021/11/28 12:59:18;;;;;;;16.47;9.80;;;5.20;99.90;;;;;;5073916;28;20952;-51
2021/11/28 13:01:58;;;;;;;16.92;10.60;;;5.20;99.90;;;;;;5073729;28;20529;-51
2021/11/28 13:04:50;;;;;;;15.70;10.25;;;5.30;99.90;;;;;;5074021;28;20264;-51